Terminal Aerodrome Forecast
Issued by NWS

Home | Current Version | Previous Version | Text Only | Print | Product List | Glossary On
Versions: 1 2 3 4 5 6 7 8 9 10 11 12 13
000
FTUS46 KSEW 281100
TAFBLI
TAF
KBLI 281127Z 2812/2912 00000KT P6SM SKC
     FM281800 17007KT P6SM FEW200
     FM282100 27005KT P6SM FEW200
     FM290300 17007KT P6SM SKC=

USA.gov is the U.S. government's official web portal to all federal, state and local government web resources and services.